Impacts METAR Board
IDs:

KJFK - New York/Kennedy Int, NY, US

Updated at: 0800 UTC 24 Sep 2018
Potential Impact None Slight Moderate High
Time 23/20Z 23/21Z 23/22Z 23/23Z 24/00Z 24/01Z 24/02Z 24/03Z 24/04Z 24/05Z 24/06Z 24/07Z 24/08Z
Temp63 63 62 63 64 64 64 64 64 63 62 62 60
Dewpt63 63 62 62 63 62 62 62 62 61 61 60 60
Altim30.23 30.23 30.24 30.25 30.27 30.28 30.29 30.31 30.31 30.31 30.32 30.32 30.33
VIS4 5 5 10 10 10 10 10 10 10 10 10 10
CIG18 23 22 27 23 30 32 37 40 45 39 45 110
CoverOVCOVCOVCOVCOVCOVCOVCOVCOVCOVCOVCOVCBKN
FltCatMVFRMVFRMVFRMVFRMVFRMVFRVFRVFRVFRVFRVFRVFRVFR
WX-RA BRBR-RA BR--------------------
WDir8050900404030402030304030
WSpd4 4 3 0 3 5 4 5 4 6 5 8 4
WGst-- -- -- -- -- -- -- -- -- -- -- -- --
Raw hourly METARs
KJFK 231951Z 08004KT 4SM -RA BR FEW009 BKN018 OVC028 17/17 A3023 RMK AO2 SLP237 P0001 T01720172
KJFK 232051Z 05004KT 5SM BR FEW007 SCT012 OVC023 17/17 A3023 RMK AO2 RAE1956 SLP238 P0000 60001 T01720172 53000
KJFK 232151Z 09003KT 5SM -RA BR FEW004 BKN022 OVC065 17/17 A3024 RMK AO2 RAB16 SLP241 P0002 T01670167
KJFK 232251Z 00000KT 10SM FEW008 BKN027 OVC050 17/17 A3025 RMK AO2 RAE19 SLP242 P0001 T01720167
KJFK 232351Z 04003KT 10SM FEW008 BKN023 OVC031 18/17 A3027 RMK AO2 SLP248 BKN V SCT 60004 T01780172 10189 20167 53006
KJFK 240051Z 04005KT 10SM FEW008 FEW020 OVC030 18/17 A3028 RMK AO2 SLP253 CIG 028V032 T01780167
KJFK 240151Z 03004KT 10SM FEW008 BKN032 OVC055 18/17 A3029 RMK AO2 SLP257 T01780167
KJFK 240251Z 04005KT 10SM OVC037 18/17 A3031 RMK AO2 SLP262 T01780167 53014
KJFK 240351Z 02004KT 10SM OVC040 18/17 A3031 RMK AO2 SLP263 T01780167
KJFK 240451Z 03006KT 10SM FEW020 BKN045 OVC240 17/16 A3031 RMK AO2 SLP264 T01720161 402060161
KJFK 240551Z 03005KT 10SM BKN039 OVC230 17/16 A3032 RMK AO2 SLP265 T01670161 10178 20167 53003
KJFK 240651Z 04008KT 10SM SCT022 BKN045 OVC250 17/16 A3032 RMK AO2 SLP266 T01670156
KJFK 240751Z 03004KT 10SM FEW023 FEW045 BKN110 BKN240 16/16 A3033 RMK AO2 SLP269 T01560156



Page loaded:  08:21 UTC  |   01:21 AM Pacific  |   02:21 AM Mountain  |   03:21 AM Central  |   04:21 AM Eastern

 

ADVISORIES

FORECASTS

FORECASTS

OBSERVATIONS

USER TOOLS

ABOUT US